Anaya — WDE5689 — position and weather

sailwx.info

Track history (hours):
 
Tides and Currents Weather Stations Pressure Air Temp Water Temp Dewpoint Dewpoint Depression Visibility Wind Speed Wind Dir Waves Ship Positions

Anaya

Owner: MKL Holdings, LLC, Bellevue, WA. More information available from US FCC via Universal Licensing System and Coast Guard Vessel Documentation Center.

Last reported at 2015-Apr-11 04:19 UTC. Time now 2015-Apr-19 12:40 UTC.
Position N 48°37' W 123°09'.
Warning: this ship's position is 8 days out of date.

Length 25 m; draft 2 m.

Type: Pleasure craft. MMSI: 367370340.

Date/timePositionNaut miles runAvg speedWind from/ knotsBaromVisibWave heightAir tempDewpointWater temp
2015-Apr-11 04:19N 48°37' W 123°09'0 0.0
2015-Apr-11 03:33N 48°37' W 123°09'0 0.0
2015-Apr-11 02:33N 48°37' W 123°09'0 0.0
2015-Apr-11 01:33N 48°37' W 123°09'0 0.0
2015-Apr-11 00:34N 48°37' W 123°09'0 0.0
2015-Apr-10 23:33N 48°37' W 123°09'0 0.0
2015-Apr-10 22:33N 48°37' W 123°09'1 0.6
2015-Apr-10 21:33N 48°37' W 123°10'1212.1
2015-Apr-10 20:32N 48°44' W 122°55'1010.2
2015-Apr-10 19:32N 48°42' W 122°39'7 4.9
2015-Apr-10 18:09N 48°45' W 122°30'  
2015-Apr-02 19:33N 48°39' W 122°34'1111.5
2015-Apr-02 18:33N 48°43' W 122°51'10 9.9
2015-Apr-02 17:33N 48°39' W 123°04'4 4.0
2015-Apr-02 16:33N 48°37' W 123°09'  
Track history (hours):
 
Tides and Currents Weather Stations Pressure Air Temp Water Temp Dewpoint Dewpoint Depression Visibility Wind Speed Wind Dir Waves Ship Positions

Anaya

Owner: MKL Holdings, LLC, Bellevue, WA. More information available from US FCC via Universal Licensing System and Coast Guard Vessel Documentation Center.

Last reported at 2015-Apr-11 04:19 UTC. Time now 2015-Apr-19 12:40 UTC.
Position N 48°37' W 123°09'.
Warning: this ship's position is 8 days out of date.

Length 25 m; draft 2 m.

Type: Pleasure craft. MMSI: 367370340.

Date/timePositionNaut miles runAvg speedWind from/ knotsBaromVisibWave heightAir tempDewpointWater temp
2015-Apr-11 04:19N 48°37' W 123°09'0 0.0
2015-Apr-11 03:33N 48°37' W 123°09'0 0.0
2015-Apr-11 02:33N 48°37' W 123°09'0 0.0
2015-Apr-11 01:33N 48°37' W 123°09'0 0.0
2015-Apr-11 00:34N 48°37' W 123°09'0 0.0
2015-Apr-10 23:33N 48°37' W 123°09'0 0.0
2015-Apr-10 22:33N 48°37' W 123°09'1 0.6
2015-Apr-10 21:33N 48°37' W 123°10'1212.1
2015-Apr-10 20:32N 48°44' W 122°55'1010.2
2015-Apr-10 19:32N 48°42' W 122°39'7 4.9
2015-Apr-10 18:09N 48°45' W 122°30'  
2015-Apr-02 19:33N 48°39' W 122°34'1111.5
2015-Apr-02 18:33N 48°43' W 122°51'10 9.9
2015-Apr-02 17:33N 48°39' W 123°04'4 4.0
2015-Apr-02 16:33N 48°37' W 123°09'  

Dump ship's entire track history